createdAt,value
2023-05-19T00:02:56.461Z,2.80
2023-05-19T00:05:46.482Z,3.30
2023-05-19T00:08:38.193Z,3.30
2023-05-19T00:11:28.720Z,2.70
2023-05-19T00:14:17.229Z,2.90
2023-05-19T00:17:06.179Z,3.40
2023-05-19T00:19:55.074Z,3.10
2023-05-19T00:22:45.181Z,3.10
2023-05-19T00:25:33.594Z,2.50
2023-05-19T00:28:21.861Z,2.50
2023-05-19T00:31:10.257Z,2.40
2023-05-19T00:33:58.376Z,2.30
2023-05-19T00:36:46.860Z,2.40
2023-05-19T00:39:35.329Z,2.50
2023-05-19T00:42:23.642Z,2.30
2023-05-19T00:45:11.958Z,2.70
2023-05-19T00:48:01.734Z,2.90
2023-05-19T00:50:52.537Z,2.40
2023-05-19T00:53:41.296Z,2.20
2023-05-19T00:56:29.749Z,2.00
2023-05-19T00:59:18.079Z,2.00
2023-05-19T01:02:07.105Z,2.30
2023-05-19T01:04:57.538Z,2.20
2023-05-19T01:07:47.421Z,2.40
2023-05-19T01:10:36.406Z,2.20
2023-05-19T01:13:25.746Z,2.00
2023-05-19T01:16:42.990Z,1.90
2023-05-19T01:19:56.513Z,1.60
2023-05-19T01:22:57.314Z,1.80
2023-05-19T01:26:35.086Z,1.80
2023-05-19T01:30:10.962Z,1.70
2023-05-19T01:33:07.695Z,1.80
2023-05-19T01:35:57.749Z,1.80
2023-05-19T01:38:47.926Z,1.50
2023-05-19T01:41:37.239Z,2.10
2023-05-19T01:44:26.932Z,1.80
2023-05-19T01:47:15.831Z,1.80
2023-05-19T01:50:05.154Z,2.10
2023-05-19T01:52:54.027Z,1.70
2023-05-19T01:55:52.048Z,1.70
2023-05-19T01:58:53.240Z,1.90
2023-05-19T02:01:53.463Z,1.90
2023-05-19T02:05:00.665Z,1.90
2023-05-19T02:08:02.597Z,1.80
2023-05-19T02:11:08.445Z,1.80
2023-05-19T02:14:00.112Z,2.00
2023-05-19T02:16:49.557Z,1.90
2023-05-19T02:19:42.618Z,2.30
2023-05-19T02:22:31.614Z,1.50
2023-05-19T02:25:19.950Z,1.80
2023-05-19T02:28:08.686Z,1.70
2023-05-19T02:30:56.833Z,1.60
2023-05-19T02:33:45.960Z,2.20
2023-05-19T02:36:39.142Z,2.10
2023-05-19T02:39:30.407Z,1.90
2023-05-19T02:42:18.605Z,1.90
2023-05-19T02:45:07.370Z,1.70
2023-05-19T02:47:56.989Z,1.80
2023-05-19T02:50:47.136Z,1.90
2023-05-19T02:53:38.581Z,1.90
2023-05-19T02:56:26.635Z,2.00
2023-05-19T02:59:14.762Z,2.10
2023-05-19T03:02:05.656Z,1.90
2023-05-19T03:04:53.822Z,2.10
2023-05-19T03:07:42.341Z,1.80
2023-05-19T03:10:31.167Z,1.90
2023-05-19T03:13:19.453Z,2.10
2023-05-19T03:16:08.665Z,1.80
2023-05-19T03:18:57.715Z,1.80
2023-05-19T03:21:46.559Z,1.80
2023-05-19T03:24:34.826Z,1.90
2023-05-19T03:27:24.649Z,2.00
2023-05-19T03:30:14.131Z,2.10
2023-05-19T03:33:16.499Z,1.90
2023-05-19T03:36:06.901Z,2.10
2023-05-19T03:38:59.042Z,2.20
2023-05-19T03:41:47.629Z,2.10
2023-05-19T03:44:35.851Z,1.80
2023-05-19T03:47:24.548Z,1.80
2023-05-19T03:50:34.144Z,2.20
2023-05-19T03:53:33.704Z,1.50
2023-05-19T03:56:25.161Z,2.20
2023-05-19T03:59:13.211Z,2.00
2023-05-19T04:02:01.319Z,2.00
2023-05-19T04:04:51.405Z,1.90
2023-05-19T04:07:40.305Z,2.40
2023-05-19T04:10:28.863Z,2.00
2023-05-19T04:13:18.409Z,16.70
2023-05-19T04:16:07.601Z,3.40
2023-05-19T04:18:57.083Z,1.90
2023-05-19T04:21:46.336Z,2.00
2023-05-19T04:24:35.058Z,1.70
2023-05-19T04:27:23.770Z,2.00
2023-05-19T04:30:12.722Z,1.60
2023-05-19T04:33:05.018Z,1.80
2023-05-19T04:35:53.866Z,1.50
2023-05-19T04:38:42.100Z,2.10
2023-05-19T04:41:31.843Z,1.70
2023-05-19T04:44:20.667Z,1.70
2023-05-19T04:47:11.580Z,1.60
2023-05-19T04:50:04.115Z,1.30
2023-05-19T04:52:53.353Z,1.50
2023-05-19T04:55:41.642Z,1.70
2023-05-19T04:58:31.104Z,2.10
2023-05-19T05:01:28.288Z,1.50
2023-05-19T05:04:17.118Z,1.70
2023-05-19T05:07:06.450Z,1.50
2023-05-19T05:09:58.633Z,1.50
2023-05-19T05:12:50.288Z,1.70
2023-05-19T05:15:39.828Z,1.50
2023-05-19T05:18:34.574Z,1.40
2023-05-19T05:21:23.997Z,1.50
2023-05-19T05:24:13.462Z,1.60
2023-05-19T05:27:02.172Z,1.40
2023-05-19T05:29:53.111Z,1.30
2023-05-19T05:32:42.872Z,1.40
2023-05-19T05:35:38.953Z,1.70
2023-05-19T05:38:28.178Z,1.30
2023-05-19T05:41:18.709Z,1.20
2023-05-19T05:44:07.818Z,1.20
2023-05-19T05:46:56.992Z,1.20
2023-05-19T05:49:48.832Z,1.30
2023-05-19T05:52:41.291Z,1.30
2023-05-19T05:55:32.004Z,1.30
2023-05-19T05:58:51.344Z,1.30
2023-05-19T06:01:44.044Z,1.50
2023-05-19T06:04:33.107Z,1.10
2023-05-19T06:07:25.220Z,1.20
2023-05-19T06:10:14.450Z,1.00
2023-05-19T06:13:29.625Z,1.20
2023-05-19T06:16:21.268Z,1.20
2023-05-19T06:19:10.161Z,1.30
2023-05-19T06:22:11.000Z,1.30
2023-05-19T06:25:09.094Z,1.10
2023-05-19T06:27:58.178Z,1.60
2023-05-19T06:30:47.380Z,1.30
2023-05-19T06:33:58.978Z,1.70
2023-05-19T06:36:47.560Z,1.90
2023-05-19T06:39:43.005Z,1.60
2023-05-19T06:42:33.075Z,1.60
2023-05-19T06:45:34.701Z,1.70
2023-05-19T06:48:27.035Z,1.60
2023-05-19T06:51:21.887Z,1.70
2023-05-19T06:54:16.481Z,1.50
2023-05-19T06:57:17.297Z,1.30
2023-05-19T07:00:19.804Z,1.70
2023-05-19T07:03:21.113Z,1.40
2023-05-19T07:06:16.284Z,1.20
2023-05-19T07:09:09.055Z,1.10
2023-05-19T07:12:01.604Z,1.10
2023-05-19T07:15:09.872Z,1.10
2023-05-19T07:18:06.616Z,1.60
2023-05-19T07:21:00.449Z,8.40
2023-05-19T07:23:58.230Z,2.70
2023-05-19T07:26:52.079Z,1.10
2023-05-19T07:29:46.469Z,1.10
2023-05-19T07:32:40.952Z,1.20
2023-05-19T07:35:40.050Z,1.10
2023-05-19T07:38:36.224Z,1.20
2023-05-19T07:41:27.663Z,1.10
2023-05-19T07:44:18.825Z,1.20
2023-05-19T07:47:08.813Z,1.60
2023-05-19T07:50:08.082Z,1.00
2023-05-19T07:53:01.251Z,1.10
2023-05-19T07:55:58.724Z,1.10
2023-05-19T07:58:57.654Z,1.20
2023-05-19T08:01:52.359Z,1.10
2023-05-19T08:04:49.148Z,1.20
2023-05-19T08:07:53.411Z,1.50
2023-05-19T08:10:47.763Z,1.30
2023-05-19T08:13:49.878Z,1.20
2023-05-19T08:16:50.994Z,1.50
2023-05-19T08:19:39.763Z,1.30
2023-05-19T08:22:29.926Z,1.30
2023-05-19T08:25:21.356Z,1.30
2023-05-19T08:28:11.976Z,1.30
2023-05-19T08:31:10.349Z,1.90
2023-05-19T08:34:04.519Z,2.70
2023-05-19T08:36:57.996Z,2.50
2023-05-19T08:39:49.069Z,3.80
2023-05-19T08:42:38.689Z,6.70
2023-05-19T08:45:39.316Z,2.50
2023-05-19T08:48:31.564Z,1.80
2023-05-19T08:52:21.368Z,3.00
2023-05-19T08:55:17.172Z,1.60
2023-05-19T08:58:08.680Z,4.20
2023-05-19T09:00:59.710Z,2.90
2023-05-19T09:03:50.196Z,1.80
2023-05-19T09:06:45.152Z,1.90
2023-05-19T09:09:33.334Z,1.60
2023-05-19T09:12:21.851Z,1.40
2023-05-19T09:15:11.107Z,1.50
2023-05-19T09:18:14.139Z,1.50
2023-05-19T09:21:03.431Z,1.60
2023-05-19T09:23:51.807Z,1.70
2023-05-19T09:26:43.164Z,1.70
2023-05-19T09:29:31.642Z,1.60
2023-05-19T09:32:29.921Z,1.70
2023-05-19T09:35:20.858Z,1.50
2023-05-19T09:38:12.011Z,1.50
2023-05-19T09:41:01.926Z,1.40
2023-05-19T09:43:56.587Z,1.30
2023-05-19T09:46:51.247Z,3.80
2023-05-19T09:49:47.785Z,2.40
2023-05-19T09:52:39.205Z,1.90
2023-05-19T09:55:29.400Z,1.50
2023-05-19T09:58:21.759Z,1.80
2023-05-19T10:01:10.334Z,1.90
2023-05-19T10:03:58.375Z,1.90
2023-05-19T10:06:46.619Z,1.80
2023-05-19T10:09:37.618Z,2.30
2023-05-19T10:12:27.691Z,1.70
2023-05-19T10:15:22.229Z,1.60
2023-05-19T10:18:16.055Z,1.90
2023-05-19T10:21:06.477Z,1.70
2023-05-19T10:23:59.201Z,1.80
2023-05-19T10:27:03.621Z,2.00
2023-05-19T10:29:52.424Z,2.20
2023-05-19T10:32:44.897Z,2.00
2023-05-19T10:36:02.845Z,2.10
2023-05-19T10:39:05.647Z,2.10
2023-05-19T10:42:31.070Z,1.90
2023-05-19T10:45:24.404Z,2.10
2023-05-19T10:48:19.622Z,2.00
2023-05-19T10:51:12.362Z,2.10
2023-05-19T10:54:11.442Z,2.00
2023-05-19T10:57:01.093Z,2.20
2023-05-19T10:59:50.239Z,15.60
2023-05-19T11:02:46.359Z,4.30
2023-05-19T11:05:37.114Z,3.00
2023-05-19T11:08:36.579Z,1.90
2023-05-19T11:11:25.135Z,2.20
2023-05-19T11:14:17.265Z,2.00
2023-05-19T11:17:14.536Z,1.90
2023-05-19T11:20:05.074Z,1.90
2023-05-19T11:23:08.874Z,1.70
2023-05-19T11:25:57.950Z,2.00
2023-05-19T11:28:48.345Z,1.90
2023-05-19T11:31:37.570Z,1.80
2023-05-19T11:34:27.368Z,2.40
2023-05-19T11:37:17.254Z,3.10
2023-05-19T11:40:07.784Z,2.30
2023-05-19T11:42:56.217Z,2.30
2023-05-19T11:45:46.021Z,2.10
2023-05-19T11:48:34.215Z,2.00
2023-05-19T11:51:23.426Z,2.10
2023-05-19T11:54:12.969Z,2.90
2023-05-19T11:57:03.120Z,2.70
2023-05-19T11:59:53.560Z,2.60
2023-05-19T12:02:42.252Z,2.40
2023-05-19T12:05:34.504Z,2.50
2023-05-19T12:08:25.622Z,1.80
2023-05-19T12:11:15.031Z,2.10
2023-05-19T12:14:03.648Z,1.90
2023-05-19T12:16:52.253Z,1.70
2023-05-19T12:19:50.398Z,1.90
2023-05-19T12:22:38.567Z,2.00
2023-05-19T12:25:28.171Z,2.30
2023-05-19T12:28:17.247Z,2.10
2023-05-19T12:31:06.919Z,1.80
2023-05-19T12:33:56.159Z,1.80
2023-05-19T12:36:46.728Z,2.20
2023-05-19T12:39:36.464Z,2.00
2023-05-19T12:42:31.422Z,2.00
2023-05-19T12:45:28.693Z,1.80
2023-05-19T12:48:17.436Z,2.20
2023-05-19T12:51:06.129Z,2.00
2023-05-19T12:53:54.891Z,2.10
2023-05-19T12:56:51.358Z,2.00
2023-05-19T12:59:42.868Z,3.00
2023-05-19T13:02:34.561Z,1.90
2023-05-19T13:05:23.474Z,2.10
2023-05-19T13:08:16.309Z,2.70
2023-05-19T13:11:05.133Z,2.20
2023-05-19T13:13:53.719Z,2.10
2023-05-19T13:16:42.882Z,2.30
2023-05-19T13:19:30.790Z,2.20
2023-05-19T13:22:19.516Z,2.80
2023-05-19T13:25:09.321Z,1.90
2023-05-19T13:27:59.556Z,1.60
2023-05-19T13:30:49.944Z,1.60
2023-05-19T13:33:37.913Z,1.80
2023-05-19T13:36:30.575Z,1.90
2023-05-19T13:39:19.712Z,2.90
2023-05-19T13:42:09.159Z,2.10
2023-05-19T13:44:58.161Z,1.90
2023-05-19T13:47:46.629Z,1.80
2023-05-19T13:50:34.759Z,1.50
2023-05-19T13:53:23.160Z,2.90
2023-05-19T13:56:14.536Z,1.70
2023-05-19T13:59:04.277Z,1.90
2023-05-19T14:01:52.653Z,2.40
2023-05-19T14:04:42.018Z,2.50
2023-05-19T14:07:30.875Z,3.10
2023-05-19T14:10:23.264Z,5.50
2023-05-19T14:13:31.477Z,2.20
2023-05-19T14:16:23.199Z,2.30
2023-05-19T14:19:11.942Z,2.40
2023-05-19T14:22:00.450Z,1.80
2023-05-19T14:24:48.760Z,2.20
2023-05-19T14:27:41.043Z,2.40
2023-05-19T14:30:29.405Z,2.50
2023-05-19T14:33:22.073Z,1.90
2023-05-19T14:36:10.783Z,2.70
2023-05-19T14:38:58.997Z,3.50
2023-05-19T14:41:49.497Z,2.50
2023-05-19T14:44:40.412Z,2.30
2023-05-19T14:47:58.479Z,2.60
2023-05-19T14:50:50.413Z,2.50
2023-05-19T14:53:39.479Z,2.40
2023-05-19T14:56:32.165Z,2.40
2023-05-19T14:59:22.968Z,2.20
2023-05-19T15:02:14.271Z,2.10
2023-05-19T15:05:04.014Z,2.30
2023-05-19T15:07:57.438Z,2.90
2023-05-19T15:10:50.097Z,2.40
2023-05-19T15:13:39.346Z,2.10
2023-05-19T15:16:28.355Z,2.20
2023-05-19T15:19:17.372Z,2.20
2023-05-19T15:22:07.364Z,2.40
2023-05-19T15:24:57.499Z,3.50
2023-05-19T15:27:49.340Z,3.40
2023-05-19T15:30:40.010Z,3.10
2023-05-19T15:33:32.574Z,2.60
2023-05-19T15:36:24.865Z,2.80
2023-05-19T15:39:13.930Z,3.00
2023-05-19T15:42:03.548Z,2.40
2023-05-19T15:44:52.539Z,2.50
2023-05-19T15:47:40.642Z,2.20
2023-05-19T15:50:30.137Z,2.50
2023-05-19T15:53:20.459Z,2.40
2023-05-19T15:56:08.725Z,2.50
2023-05-19T15:58:57.988Z,2.50
2023-05-19T16:01:46.860Z,2.20
2023-05-19T16:04:35.220Z,3.40
2023-05-19T16:07:23.964Z,4.00
2023-05-19T16:10:12.717Z,3.60
2023-05-19T16:13:00.965Z,3.00
2023-05-19T16:15:49.504Z,2.60
2023-05-19T16:18:37.884Z,3.40
2023-05-19T16:21:26.120Z,6.40
2023-05-19T16:24:14.517Z,5.70
2023-05-19T16:27:05.221Z,4.90
2023-05-19T16:29:53.625Z,4.60
2023-05-19T16:32:41.660Z,4.40
2023-05-19T16:35:29.948Z,3.90
2023-05-19T16:38:18.335Z,4.30
2023-05-19T16:41:12.282Z,3.60
2023-05-19T16:44:02.488Z,3.30
2023-05-19T16:46:51.047Z,3.00
2023-05-19T16:49:42.540Z,3.20
2023-05-19T16:52:30.649Z,3.00
2023-05-19T16:55:20.819Z,4.60
2023-05-19T16:58:11.824Z,4.80
2023-05-19T17:01:00.675Z,3.60
2023-05-19T17:03:49.006Z,3.80
2023-05-19T17:06:37.649Z,5.40
2023-05-19T17:09:26.472Z,5.30
2023-05-19T17:12:15.964Z,3.90
2023-05-19T17:15:04.751Z,8.50
2023-05-19T17:17:53.798Z,6.50
2023-05-19T17:20:42.023Z,5.80
2023-05-19T17:23:30.769Z,5.30
2023-05-19T17:26:19.235Z,4.60
2023-05-19T17:29:07.419Z,4.00
2023-05-19T17:31:55.909Z,4.20
2023-05-19T17:34:44.176Z,4.40
2023-05-19T17:37:33.431Z,4.50
2023-05-19T17:40:21.752Z,6.10
2023-05-19T17:43:11.045Z,5.20
2023-05-19T17:46:01.030Z,5.50
2023-05-19T17:48:49.438Z,5.30
2023-05-19T17:51:39.592Z,5.70
2023-05-19T17:54:30.034Z,5.50
2023-05-19T17:57:19.128Z,6.20
2023-05-19T18:00:09.165Z,6.50
2023-05-19T18:02:57.741Z,6.10
2023-05-19T18:05:46.819Z,6.00
2023-05-19T18:08:38.226Z,5.80
2023-05-19T18:11:27.498Z,6.20
2023-05-19T18:14:16.550Z,5.40
2023-05-19T18:17:05.618Z,5.80
2023-05-19T18:19:54.802Z,5.80
2023-05-19T18:22:43.603Z,5.50
2023-05-19T18:25:31.599Z,5.90
2023-05-19T18:28:20.473Z,5.20
2023-05-19T18:31:17.551Z,6.20
2023-05-19T18:34:06.535Z,6.00
2023-05-19T18:36:54.998Z,6.30
2023-05-19T18:39:42.969Z,4.80
2023-05-19T18:42:31.019Z,4.60
2023-05-19T18:45:19.543Z,4.60
2023-05-19T18:48:08.885Z,4.60
2023-05-19T18:50:58.054Z,4.70
2023-05-19T18:53:50.152Z,4.90
2023-05-19T18:56:38.735Z,4.40
2023-05-19T18:59:27.000Z,5.80
2023-05-19T19:02:15.249Z,5.50
2023-05-19T19:05:04.267Z,4.80
2023-05-19T19:07:53.941Z,5.20
2023-05-19T19:10:42.648Z,5.70
2023-05-19T19:13:30.919Z,5.30
2023-05-19T19:16:19.444Z,5.00
2023-05-19T19:19:08.780Z,5.10
2023-05-19T19:21:58.306Z,5.20
2023-05-19T19:24:48.224Z,5.10
2023-05-19T19:27:37.786Z,4.60
2023-05-19T19:30:27.617Z,4.90
2023-05-19T19:33:16.032Z,4.20
2023-05-19T19:36:05.063Z,4.10
2023-05-19T19:38:53.826Z,3.80
2023-05-19T19:41:42.724Z,4.50
2023-05-19T19:44:33.423Z,4.20
2023-05-19T19:47:22.478Z,4.10
2023-05-19T19:50:12.797Z,4.60
2023-05-19T19:53:02.084Z,4.00
2023-05-19T19:56:02.705Z,4.10
2023-05-19T19:58:52.273Z,4.70
2023-05-19T20:01:40.631Z,3.90
2023-05-19T20:04:29.762Z,4.40
2023-05-19T20:07:21.092Z,4.20
2023-05-19T20:10:11.742Z,4.90
2023-05-19T20:13:01.374Z,4.90
2023-05-19T20:15:50.793Z,5.10
2023-05-19T20:18:40.904Z,4.10
2023-05-19T20:21:30.527Z,4.50
2023-05-19T20:24:18.958Z,4.10
2023-05-19T20:27:11.162Z,4.40
2023-05-19T20:29:59.982Z,4.00
2023-05-19T20:32:50.267Z,3.50
2023-05-19T20:35:41.061Z,4.80
2023-05-19T20:38:31.535Z,4.50
2023-05-19T20:41:21.324Z,4.30
2023-05-19T20:44:12.881Z,4.40
2023-05-19T20:47:01.401Z,3.90
2023-05-19T20:49:50.250Z,3.60
2023-05-19T20:52:40.202Z,3.20
2023-05-19T20:55:29.093Z,2.80
2023-05-19T20:58:17.219Z,3.50
2023-05-19T21:01:06.032Z,3.30
2023-05-19T21:03:54.607Z,3.10
2023-05-19T21:06:42.910Z,3.00
2023-05-19T21:09:31.001Z,3.10
2023-05-19T21:12:25.523Z,2.70
2023-05-19T21:15:15.823Z,2.60
2023-05-19T21:18:07.271Z,2.90
2023-05-19T21:20:56.854Z,2.90
2023-05-19T21:23:45.582Z,2.80
2023-05-19T21:26:33.774Z,2.30
2023-05-19T21:29:31.181Z,2.50
2023-05-19T21:32:29.745Z,2.70
2023-05-19T21:35:17.970Z,2.30
2023-05-19T21:38:15.688Z,2.90
2023-05-19T21:41:12.547Z,2.30
2023-05-19T21:44:01.520Z,2.20
2023-05-19T21:46:52.250Z,2.30
2023-05-19T21:49:41.085Z,2.40
2023-05-19T21:52:29.470Z,2.50
2023-05-19T21:55:18.581Z,2.10
2023-05-19T21:58:06.852Z,2.10
2023-05-19T22:00:55.024Z,2.00
2023-05-19T22:03:43.390Z,2.00
2023-05-19T22:06:31.759Z,2.00
2023-05-19T22:09:20.068Z,1.90
2023-05-19T22:12:09.062Z,2.00
2023-05-19T22:14:57.282Z,1.90
2023-05-19T22:17:45.538Z,1.80
2023-05-19T22:20:34.222Z,1.70
2023-05-19T22:23:23.020Z,1.70
2023-05-19T22:26:11.697Z,2.00
2023-05-19T22:29:01.184Z,1.70
2023-05-19T22:31:50.445Z,1.80
2023-05-19T22:34:39.332Z,2.00
2023-05-19T22:37:29.106Z,1.90
2023-05-19T22:40:18.017Z,1.90
2023-05-19T22:43:06.300Z,2.00
2023-05-19T22:45:56.380Z,2.00
2023-05-19T22:48:45.425Z,2.00
2023-05-19T22:51:33.810Z,1.80
2023-05-19T22:54:21.901Z,2.40
2023-05-19T22:57:11.585Z,1.90
2023-05-19T22:59:59.620Z,1.90
2023-05-19T23:02:47.829Z,1.90
2023-05-19T23:05:36.165Z,1.70
2023-05-19T23:08:24.424Z,1.50
2023-05-19T23:11:13.262Z,1.40
2023-05-19T23:14:02.059Z,1.60
2023-05-19T23:16:50.485Z,1.50
2023-05-19T23:19:39.166Z,1.50
2023-05-19T23:22:27.578Z,1.40
2023-05-19T23:25:15.668Z,1.50
2023-05-19T23:28:04.112Z,1.80
2023-05-19T23:30:54.432Z,1.60
2023-05-19T23:33:42.897Z,1.80
2023-05-19T23:36:31.793Z,1.50
2023-05-19T23:39:20.153Z,1.70
2023-05-19T23:42:08.322Z,1.90
2023-05-19T23:44:56.594Z,1.70
2023-05-19T23:47:44.815Z,2.00
2023-05-19T23:50:32.982Z,1.60
2023-05-19T23:53:21.408Z,1.50
2023-05-19T23:56:10.691Z,1.60
2023-05-19T23:58:58.854Z,1.40
